createdAt,value
2023-03-16T00:00:41.876Z,88761.53
2023-03-16T00:03:09.444Z,88753.53
2023-03-16T00:05:36.263Z,88752.41
2023-03-16T00:08:03.357Z,88751.16
2023-03-16T00:10:30.410Z,88748.06
2023-03-16T00:12:57.741Z,88749.75
2023-03-16T00:15:24.720Z,88748.66
2023-03-16T00:17:51.529Z,88744.09
2023-03-16T00:20:18.992Z,88748.19
2023-03-16T00:22:46.029Z,88742.75
2023-03-16T00:25:14.652Z,88733.97
2023-03-16T00:27:41.575Z,88731.47
2023-03-16T00:30:09.476Z,88740.97
2023-03-16T00:32:37.673Z,88738.88
2023-03-16T00:35:09.145Z,88737.47
2023-03-16T00:37:36.424Z,88742.03
2023-03-16T00:40:03.407Z,88735.69
2023-03-16T00:42:31.053Z,88735.63
2023-03-16T00:44:58.839Z,88736.97
2023-03-16T00:47:27.599Z,88730.41
2023-03-16T00:49:54.639Z,88738.19
2023-03-16T00:52:22.400Z,88747.19
2023-03-16T00:54:49.775Z,88750.91
2023-03-16T00:57:18.131Z,88754.59
2023-03-16T00:59:46.344Z,88749.84
2023-03-16T01:02:14.487Z,88750.91
2023-03-16T01:04:42.435Z,88759.16
2023-03-16T01:07:11.545Z,88756.31
2023-03-16T01:09:39.888Z,88746.38
2023-03-16T01:12:12.934Z,88756.06
2023-03-16T01:14:40.209Z,88757.38
2023-03-16T01:17:08.628Z,88760.22
2023-03-16T01:19:37.434Z,88751.84
2023-03-16T01:22:06.398Z,88748.50
2023-03-16T01:24:34.021Z,88755.13
2023-03-16T01:27:01.441Z,88749.72
2023-03-16T01:29:28.280Z,88752.22
2023-03-16T01:31:55.101Z,88755.66
2023-03-16T01:34:23.190Z,88753.81
2023-03-16T01:36:51.016Z,88752.69
2023-03-16T01:39:17.947Z,88756.31
2023-03-16T01:41:45.916Z,88752.34
2023-03-16T01:44:19.325Z,88756.56
2023-03-16T01:46:46.203Z,88761.72
2023-03-16T01:49:24.062Z,88756.44
2023-03-16T01:52:11.124Z,88756.38
2023-03-16T01:54:51.723Z,88752.91
2023-03-16T01:57:19.931Z,88752.41
2023-03-16T02:00:09.888Z,88751.22
2023-03-16T02:02:41.149Z,88750.38
2023-03-16T02:05:20.949Z,88752.25
2023-03-16T02:07:49.747Z,88751.84
2023-03-16T02:10:20.093Z,88746.78
2023-03-16T02:12:47.501Z,88741.19
2023-03-16T02:15:14.886Z,88741.34
2023-03-16T02:17:43.908Z,88744.53
2023-03-16T02:20:47.639Z,88744.03
2023-03-16T02:23:18.387Z,88745.88
2023-03-16T02:25:59.637Z,88733.56
2023-03-16T02:28:52.361Z,88732.78
2023-03-16T02:31:20.322Z,88728.34
2023-03-16T02:33:49.550Z,88729.41
2023-03-16T02:36:18.905Z,88725.53
2023-03-16T02:38:45.853Z,88722.72
2023-03-16T02:41:18.505Z,88724.72
2023-03-16T02:43:55.812Z,88721.88
2023-03-16T02:46:26.891Z,88727.91
2023-03-16T02:49:16.020Z,88731.19
2023-03-16T02:51:45.501Z,88727.69
2023-03-16T02:54:12.465Z,88731.72
2023-03-16T02:56:39.934Z,88729.06
2023-03-16T02:59:06.972Z,88730.56
2023-03-16T03:01:33.966Z,88724.91
2023-03-16T03:04:01.829Z,88725.81
2023-03-16T03:06:28.950Z,88713.66
2023-03-16T03:08:56.360Z,88727.13
2023-03-16T03:11:23.189Z,88722.22
2023-03-16T03:13:50.562Z,88716.59
2023-03-16T03:16:17.428Z,88714.56
2023-03-16T03:18:44.507Z,88698.00
2023-03-16T03:21:11.288Z,88709.13
2023-03-16T03:23:38.194Z,88699.75
2023-03-16T03:26:05.582Z,88699.81
2023-03-16T03:28:32.472Z,88706.94
2023-03-16T03:30:59.252Z,88699.25
2023-03-16T03:33:26.101Z,88702.03
2023-03-16T03:36:02.079Z,88706.50
2023-03-16T03:38:28.942Z,88712.25
2023-03-16T03:40:55.785Z,88704.59
2023-03-16T03:43:22.664Z,88715.13
2023-03-16T03:45:49.637Z,88719.34
2023-03-16T03:48:16.537Z,88716.75
2023-03-16T03:50:43.379Z,88718.44
2023-03-16T03:53:10.372Z,88719.63
2023-03-16T03:55:37.266Z,88715.06
2023-03-16T03:58:04.129Z,88718.97
2023-03-16T04:00:31.060Z,88722.06
2023-03-16T04:02:57.970Z,88729.09
2023-03-16T04:05:25.756Z,88726.72
2023-03-16T04:07:52.631Z,88719.22
2023-03-16T04:10:19.555Z,88728.38
2023-03-16T04:12:46.425Z,88735.50
2023-03-16T04:15:13.260Z,88731.97
2023-03-16T04:17:40.067Z,88738.63
2023-03-16T04:20:07.572Z,88730.50
2023-03-16T04:22:34.435Z,88749.34
2023-03-16T04:25:01.260Z,88752.41
2023-03-16T04:27:28.161Z,88742.28
2023-03-16T04:29:55.076Z,88756.03
2023-03-16T04:32:21.984Z,88756.97
2023-03-16T04:34:48.804Z,88751.84
2023-03-16T04:37:15.648Z,88758.31
2023-03-16T04:39:42.582Z,88753.75
2023-03-16T04:42:09.497Z,88749.72
2023-03-16T04:44:36.476Z,88749.88
2023-03-16T04:47:03.216Z,88762.97
2023-03-16T04:49:30.064Z,88760.97
2023-03-16T04:51:57.074Z,88765.28
2023-03-16T04:54:23.956Z,88757.09
2023-03-16T04:56:50.722Z,88755.91
2023-03-16T04:59:17.526Z,88755.97
2023-03-16T05:01:44.410Z,88752.19
2023-03-16T05:04:15.028Z,88756.22
2023-03-16T05:06:46.028Z,88765.84
2023-03-16T05:09:12.839Z,88768.22
2023-03-16T05:11:40.060Z,88772.19
2023-03-16T05:14:06.982Z,88772.53
2023-03-16T05:16:33.808Z,88763.28
2023-03-16T05:19:01.741Z,88776.13
2023-03-16T05:21:28.597Z,88765.50
2023-03-16T05:23:55.486Z,88767.63
2023-03-16T05:26:22.355Z,88773.53
2023-03-16T05:28:49.241Z,88781.16
2023-03-16T05:31:16.275Z,88767.34
2023-03-16T05:33:43.538Z,88773.25
2023-03-16T05:36:11.417Z,88775.72
2023-03-16T05:38:38.340Z,88780.09
2023-03-16T05:41:06.216Z,88764.81
2023-03-16T05:43:33.335Z,88777.38
2023-03-16T05:46:00.175Z,88781.72
2023-03-16T05:48:27.023Z,88781.66
2023-03-16T05:50:54.471Z,88778.28
2023-03-16T05:53:21.807Z,88779.28
2023-03-16T05:55:52.890Z,88769.50
2023-03-16T05:58:19.838Z,88777.38
2023-03-16T06:00:49.643Z,88786.97
2023-03-16T06:03:16.972Z,88782.75
2023-03-16T06:05:44.022Z,88776.59
2023-03-16T06:08:10.823Z,88785.50
2023-03-16T06:10:37.720Z,88789.34
2023-03-16T06:13:04.725Z,88788.22
2023-03-16T06:15:34.616Z,88790.59
2023-03-16T06:18:04.588Z,88795.66
2023-03-16T06:20:31.432Z,88788.56
2023-03-16T06:22:58.244Z,88804.56
2023-03-16T06:25:25.080Z,88792.53
2023-03-16T06:27:51.987Z,88799.00
2023-03-16T06:30:18.886Z,88800.84
2023-03-16T06:32:45.866Z,88799.13
2023-03-16T06:35:13.547Z,88805.28
2023-03-16T06:37:40.400Z,88801.41
2023-03-16T06:40:08.002Z,88796.59
2023-03-16T06:42:34.826Z,88792.94
2023-03-16T06:45:01.716Z,88796.97
2023-03-16T06:47:28.694Z,88796.78
2023-03-16T06:49:55.509Z,88800.09
2023-03-16T06:52:23.110Z,88795.31
2023-03-16T06:54:50.218Z,88802.13
2023-03-16T06:57:17.064Z,88804.22
2023-03-16T06:59:43.910Z,88804.69
2023-03-16T07:02:13.075Z,88815.50
2023-03-16T07:04:40.423Z,88810.28
2023-03-16T07:07:07.269Z,88812.06
2023-03-16T07:09:36.741Z,88807.31
2023-03-16T07:12:05.700Z,88808.63
2023-03-16T07:14:32.524Z,88811.28
2023-03-16T07:16:59.640Z,88824.44
2023-03-16T07:19:26.492Z,88819.66
2023-03-16T07:21:53.582Z,88818.03
2023-03-16T07:24:21.230Z,88818.56
2023-03-16T07:26:47.967Z,88814.81
2023-03-16T07:29:14.808Z,88822.31
2023-03-16T07:31:41.712Z,88821.38
2023-03-16T07:34:08.720Z,88817.03
2023-03-16T07:36:35.555Z,88817.63
2023-03-16T07:39:02.464Z,88815.25
2023-03-16T07:41:31.629Z,88811.69
2023-03-16T07:43:59.340Z,88810.75
2023-03-16T07:46:26.542Z,88821.03
2023-03-16T07:48:53.403Z,88816.25
2023-03-16T07:51:20.219Z,88822.50
2023-03-16T07:53:47.369Z,88814.91
2023-03-16T07:56:14.241Z,88817.88
2023-03-16T07:58:41.531Z,88818.53
2023-03-16T08:01:08.561Z,88814.94
2023-03-16T08:03:35.530Z,88807.34
2023-03-16T08:06:02.562Z,88819.31
2023-03-16T08:08:29.406Z,88827.22
2023-03-16T08:10:56.744Z,88822.56
2023-03-16T08:13:24.016Z,88828.66
2023-03-16T08:15:52.274Z,88824.91
2023-03-16T08:18:19.156Z,88820.13
2023-03-16T08:20:46.035Z,88822.03
2023-03-16T08:23:12.926Z,88821.94
2023-03-16T08:25:39.751Z,88816.06
2023-03-16T08:28:06.860Z,88815.09
2023-03-16T08:30:33.820Z,88816.81
2023-03-16T08:33:00.924Z,88819.03
2023-03-16T08:35:27.845Z,88818.41
2023-03-16T08:37:56.023Z,88812.59
2023-03-16T08:40:23.140Z,88815.50
2023-03-16T08:42:50.014Z,88814.03
2023-03-16T08:45:17.283Z,88815.03
2023-03-16T08:47:44.266Z,88810.22
2023-03-16T08:50:12.858Z,88808.28
2023-03-16T08:52:39.785Z,88797.91
2023-03-16T08:55:07.950Z,88804.19
2023-03-16T08:57:34.766Z,88802.47
2023-03-16T09:00:02.133Z,88798.59
2023-03-16T09:02:29.271Z,88812.16
2023-03-16T09:04:56.074Z,88801.72
2023-03-16T09:07:23.187Z,88803.94
2023-03-16T09:09:50.206Z,88796.44
2023-03-16T09:12:17.016Z,88798.38
2023-03-16T09:14:43.889Z,88809.97
2023-03-16T09:17:10.928Z,88803.94
2023-03-16T09:19:55.711Z,88806.06
2023-03-16T09:22:24.539Z,88796.88
2023-03-16T09:24:51.494Z,88794.22
2023-03-16T09:27:19.253Z,88799.31
2023-03-16T09:29:46.798Z,88801.75
2023-03-16T09:32:13.646Z,88789.63
2023-03-16T09:34:40.707Z,88791.31
2023-03-16T09:37:07.716Z,88794.41
2023-03-16T09:39:34.573Z,88796.34
2023-03-16T09:42:34.018Z,88793.88
2023-03-16T09:45:12.920Z,88796.75
2023-03-16T09:47:41.932Z,88789.53
2023-03-16T09:50:16.713Z,88784.72
2023-03-16T09:52:55.330Z,88788.13
2023-03-16T09:55:25.204Z,88790.31
2023-03-16T09:57:53.964Z,88793.50
2023-03-16T10:00:22.849Z,88790.84
2023-03-16T10:03:17.999Z,88794.22
2023-03-16T10:05:47.935Z,88797.63
2023-03-16T10:08:24.358Z,88794.25
2023-03-16T10:11:28.589Z,88793.03
2023-03-16T10:13:59.715Z,88788.94
2023-03-16T10:16:46.975Z,88794.75
2023-03-16T10:19:45.821Z,88790.13
2023-03-16T10:22:22.545Z,88788.22
2023-03-16T10:25:11.107Z,88791.09
2023-03-16T10:27:40.611Z,88786.00
2023-03-16T10:30:14.270Z,88782.41
2023-03-16T10:32:41.071Z,88781.44
2023-03-16T10:35:26.210Z,88779.03
2023-03-16T10:37:53.144Z,88780.47
2023-03-16T10:40:19.982Z,88785.56
2023-03-16T10:42:47.700Z,88774.41
2023-03-16T10:45:32.188Z,88774.91
2023-03-16T10:48:18.194Z,88765.97
2023-03-16T10:50:50.439Z,88766.94
2023-03-16T10:53:23.237Z,88765.72
2023-03-16T10:55:50.370Z,88761.63
2023-03-16T10:58:25.756Z,88765.00
2023-03-16T11:00:52.607Z,88761.38
2023-03-16T11:03:30.287Z,88767.66
2023-03-16T11:05:59.460Z,88764.03
2023-03-16T11:08:28.139Z,88766.44
2023-03-16T11:11:01.032Z,88773.69
2023-03-16T11:13:36.590Z,88765.47
2023-03-16T11:16:06.334Z,88767.91
2023-03-16T11:18:41.625Z,88767.91
2023-03-16T11:21:12.524Z,88774.19
2023-03-16T11:23:43.236Z,88769.13
2023-03-16T11:26:21.404Z,88772.03
2023-03-16T11:28:56.991Z,88777.56
2023-03-16T11:31:43.984Z,88770.78
2023-03-16T11:34:16.550Z,88775.41
2023-03-16T11:36:50.400Z,88783.38
2023-03-16T11:39:44.947Z,88784.56
2023-03-16T11:42:42.208Z,88771.28
2023-03-16T11:45:20.673Z,88771.06
2023-03-16T11:48:13.774Z,88775.41
2023-03-16T11:51:05.207Z,88767.16
2023-03-16T11:53:47.191Z,88769.84
2023-03-16T11:56:34.371Z,88762.09
2023-03-16T11:59:26.274Z,88769.84
2023-03-16T12:02:05.229Z,88769.81
2023-03-16T12:04:41.059Z,88774.66
2023-03-16T12:07:19.774Z,88769.81
2023-03-16T12:10:17.684Z,88775.78
2023-03-16T12:13:02.617Z,88774.50
2023-03-16T12:15:33.068Z,88766.56
2023-03-16T12:18:14.163Z,88776.84
2023-03-16T12:20:51.226Z,88772.94
2023-03-16T12:23:29.334Z,88785.31
2023-03-16T12:25:58.722Z,88772.50
2023-03-16T12:28:28.493Z,88775.16
2023-03-16T12:31:20.169Z,88774.41
2023-03-16T12:33:56.979Z,88767.91
2023-03-16T12:36:55.163Z,88778.06
2023-03-16T12:39:48.884Z,88784.09
2023-03-16T12:42:41.971Z,88772.25
2023-03-16T12:45:16.142Z,88777.56
2023-03-16T12:47:49.308Z,88784.84
2023-03-16T12:50:18.040Z,88794.75
2023-03-16T12:52:47.879Z,88787.72
2023-03-16T12:55:17.418Z,88790.16
2023-03-16T12:57:46.069Z,88799.78
2023-03-16T13:00:14.779Z,88803.66
2023-03-16T13:02:55.984Z,88799.78
2023-03-16T13:05:35.182Z,88801.28
2023-03-16T13:08:10.409Z,88799.81
2023-03-16T13:10:38.558Z,88800.25
2023-03-16T13:13:16.497Z,88804.56
2023-03-16T13:15:44.807Z,88814.00
2023-03-16T13:18:14.712Z,88813.25
2023-03-16T13:21:01.217Z,88817.59
2023-03-16T13:23:56.638Z,88818.56
2023-03-16T13:26:45.622Z,88804.31
2023-03-16T13:29:28.627Z,88823.19
2023-03-16T13:32:02.187Z,88807.69
2023-03-16T13:34:46.884Z,88805.00
2023-03-16T13:37:15.459Z,88800.66
2023-03-16T13:39:42.607Z,88803.09
2023-03-16T13:42:19.381Z,88785.75
2023-03-16T13:44:46.608Z,88795.19
2023-03-16T13:47:20.069Z,88795.69
2023-03-16T13:49:51.617Z,88798.84
2023-03-16T13:52:31.834Z,88788.22
2023-03-16T13:55:00.425Z,88794.47
2023-03-16T13:57:30.569Z,88799.78
2023-03-16T14:00:25.502Z,88788.63
2023-03-16T14:03:00.233Z,88811.38
2023-03-16T14:05:30.051Z,88798.34
2023-03-16T14:07:57.432Z,88801.47
2023-03-16T14:10:29.721Z,88803.66
2023-03-16T14:12:58.684Z,88804.16
2023-03-16T14:15:28.244Z,88806.56
2023-03-16T14:18:13.894Z,88808.72
2023-03-16T14:20:41.811Z,88802.44
2023-03-16T14:23:25.935Z,88803.38
2023-03-16T14:25:53.282Z,88803.38
2023-03-16T14:28:27.090Z,88799.75
2023-03-16T14:31:01.702Z,88806.75
2023-03-16T14:33:31.232Z,88801.69
2023-03-16T14:36:06.958Z,88806.28
2023-03-16T14:38:36.340Z,88804.84
2023-03-16T14:41:13.535Z,88797.09
2023-03-16T14:43:47.344Z,88810.63
2023-03-16T14:46:17.801Z,88808.69
2023-03-16T14:48:44.874Z,88807.25
2023-03-16T14:51:15.208Z,88814.72
2023-03-16T14:53:42.177Z,88805.78
2023-03-16T14:56:12.954Z,88807.22
2023-03-16T14:58:40.722Z,88812.78
2023-03-16T15:01:14.410Z,88809.41
2023-03-16T15:03:41.721Z,88815.44
2023-03-16T15:06:08.518Z,88809.88
2023-03-16T15:08:36.687Z,88821.94
2023-03-16T15:11:06.710Z,88817.13
2023-03-16T15:13:33.975Z,88817.59
2023-03-16T15:16:02.134Z,88822.41
2023-03-16T15:18:29.168Z,88823.84
2023-03-16T15:20:56.096Z,88823.31
2023-03-16T15:23:22.954Z,88826.44
2023-03-16T15:25:50.177Z,88832.47
2023-03-16T15:28:18.327Z,88830.53
2023-03-16T15:30:51.271Z,88835.59
2023-03-16T15:33:18.524Z,88844.28
2023-03-16T15:35:48.169Z,88834.13
2023-03-16T15:38:24.182Z,88840.38
2023-03-16T15:40:52.056Z,88840.59
2023-03-16T15:43:27.431Z,88842.03
2023-03-16T15:45:56.444Z,88847.84
2023-03-16T15:48:23.472Z,88843.50
2023-03-16T15:51:16.450Z,88845.19
2023-03-16T15:53:50.177Z,88849.03
2023-03-16T15:56:24.196Z,88849.22
2023-03-16T16:10:16.944Z,88850.94
2023-03-16T16:12:45.090Z,88859.44
2023-03-16T16:15:22.396Z,88868.13
2023-03-16T16:18:09.955Z,88860.38
2023-03-16T16:20:37.284Z,88863.34
2023-03-16T16:23:04.412Z,88866.25
2023-03-16T16:25:37.521Z,88873.53
2023-03-16T16:28:21.039Z,88891.63
2023-03-16T16:30:48.772Z,88889.25
2023-03-16T16:33:22.805Z,88897.00
2023-03-16T16:35:49.667Z,88894.28
2023-03-16T16:38:16.519Z,88897.38
2023-03-16T16:40:43.758Z,88907.28
2023-03-16T16:43:37.662Z,88904.38
2023-03-16T16:46:16.237Z,88906.94
2023-03-16T16:48:46.527Z,88917.44
2023-03-16T16:51:24.708Z,88918.38
2023-03-16T16:53:54.110Z,88920.00
2023-03-16T16:56:26.377Z,88927.28
2023-03-16T16:58:54.199Z,88925.38
2023-03-16T17:01:30.176Z,88918.59
2023-03-16T17:03:57.523Z,88925.72
2023-03-16T17:06:24.611Z,88926.63
2023-03-16T17:08:51.657Z,88928.09
2023-03-16T17:11:28.208Z,88930.03
2023-03-16T17:13:57.765Z,88949.03
2023-03-16T17:16:25.273Z,88948.81
2023-03-16T17:18:52.172Z,88960.19
2023-03-16T17:21:21.923Z,88964.31
2023-03-16T17:23:49.885Z,88971.78
2023-03-16T17:26:23.831Z,88967.94
2023-03-16T17:28:57.738Z,88968.31
2023-03-16T17:31:28.026Z,88965.84
2023-03-16T17:33:56.283Z,88980.75
2023-03-16T17:36:23.110Z,88968.38
2023-03-16T17:38:50.264Z,88972.75
2023-03-16T17:41:30.128Z,88974.91
2023-03-16T17:44:03.028Z,88970.81
2023-03-16T17:46:31.827Z,88975.91
2023-03-16T17:48:58.777Z,88974.66
2023-03-16T17:51:25.727Z,88978.38
2023-03-16T17:53:52.644Z,88976.28
2023-03-16T17:56:27.085Z,88983.25
2023-03-16T17:58:56.490Z,88983.25
2023-03-16T18:01:34.168Z,88988.59
2023-03-16T18:04:02.972Z,88980.38
2023-03-16T18:06:31.053Z,88978.81
2023-03-16T18:08:58.393Z,88980.31
2023-03-16T18:11:37.526Z,88987.09
2023-03-16T18:14:08.747Z,88989.78
2023-03-16T18:16:36.753Z,88993.41
2023-03-16T18:19:17.223Z,88994.94
2023-03-16T18:21:44.716Z,88985.59
2023-03-16T18:24:15.301Z,88995.78
2023-03-16T18:26:43.727Z,88993.38
2023-03-16T18:29:12.756Z,88990.16
2023-03-16T18:31:43.384Z,88987.75
2023-03-16T18:34:28.276Z,88986.56
2023-03-16T18:36:56.528Z,88983.97
2023-03-16T18:39:24.090Z,88983.50
2023-03-16T18:41:52.299Z,88981.53
2023-03-16T18:44:22.489Z,88991.22
2023-03-16T18:46:53.327Z,88985.25
2023-03-16T18:49:28.453Z,88980.09
2023-03-16T18:51:56.432Z,88982.75
2023-03-16T18:54:31.929Z,88988.69
2023-03-16T18:56:59.666Z,88989.59
2023-03-16T18:59:27.518Z,88991.50
2023-03-16T19:01:57.912Z,88993.78
2023-03-16T19:04:30.584Z,88998.72
2023-03-16T19:06:57.818Z,88995.38
2023-03-16T19:09:29.476Z,88995.16
2023-03-16T19:11:59.581Z,88999.16
2023-03-16T19:14:33.522Z,88990.81
2023-03-16T19:17:00.843Z,88998.50
2023-03-16T19:19:27.751Z,89004.50
2023-03-16T19:22:07.412Z,89004.66
2023-03-16T19:24:55.148Z,89009.66
2023-03-16T19:27:35.426Z,89011.44
2023-03-16T19:30:02.883Z,89013.16
2023-03-16T19:32:29.825Z,89012.84
2023-03-16T19:34:57.182Z,89012.06
2023-03-16T19:37:24.199Z,89004.25
2023-03-16T19:39:54.213Z,89004.81
2023-03-16T19:42:28.713Z,89007.50
2023-03-16T19:44:56.388Z,89007.03
2023-03-16T19:47:30.965Z,89018.66
2023-03-16T19:49:58.383Z,89022.88
2023-03-16T19:52:26.460Z,89021.94
2023-03-16T19:54:53.362Z,89028.53
2023-03-16T19:57:20.909Z,89024.69
2023-03-16T19:59:53.303Z,89024.00
2023-03-16T20:02:43.930Z,89039.00
2023-03-16T20:05:17.877Z,89046.66
2023-03-16T20:07:44.734Z,89044.81
2023-03-16T20:10:20.060Z,89053.59
2023-03-16T20:12:49.673Z,89052.16
2023-03-16T20:15:18.638Z,89061.84
2023-03-16T20:17:46.420Z,89054.72
2023-03-16T20:20:29.899Z,89060.19
2023-03-16T20:22:57.210Z,89061.66
2023-03-16T20:25:25.761Z,89061.44
2023-03-16T20:27:57.456Z,89061.53
2023-03-16T20:30:24.476Z,89059.97
2023-03-16T20:32:56.221Z,89061.78
2023-03-16T20:35:26.857Z,89068.34
2023-03-16T20:37:55.259Z,89079.28
2023-03-16T20:40:23.434Z,89080.94
2023-03-16T20:42:51.775Z,89085.41
2023-03-16T20:45:24.681Z,89074.34
2023-03-16T20:47:54.787Z,89070.00
2023-03-16T20:50:30.913Z,89065.50
2023-03-16T20:52:58.898Z,89052.78
2023-03-16T20:55:27.614Z,89067.22
2023-03-16T20:57:55.412Z,89060.06
2023-03-16T21:00:27.259Z,89067.81
2023-03-16T21:02:55.023Z,89069.47
2023-03-16T21:05:23.463Z,89055.75
2023-03-16T21:07:52.072Z,89048.53
2023-03-16T21:10:23.660Z,89051.00
2023-03-16T21:12:56.217Z,89052.72
2023-03-16T21:15:32.381Z,89057.00
2023-03-16T21:18:00.897Z,89051.72
2023-03-16T21:20:30.952Z,89046.25
2023-03-16T21:22:59.376Z,89037.09
2023-03-16T21:25:30.369Z,89041.66
2023-03-16T21:28:03.610Z,89044.88
2023-03-16T21:30:40.184Z,89056.91
2023-03-16T21:33:30.705Z,89046.09
2023-03-16T21:35:59.084Z,89037.03
2023-03-16T21:38:28.408Z,89039.75
2023-03-16T21:40:56.519Z,89041.88
2023-03-16T21:43:23.977Z,89033.94
2023-03-16T21:45:51.231Z,89036.41
2023-03-16T21:48:23.890Z,89034.50
2023-03-16T21:50:52.879Z,89029.47
2023-03-16T21:53:26.381Z,89035.94
2023-03-16T21:55:53.937Z,89041.88
2023-03-16T21:58:21.396Z,89035.03
2023-03-16T22:00:49.746Z,89038.47
2023-03-16T22:03:47.989Z,89043.31
2023-03-16T22:06:16.600Z,89045.41
2023-03-16T22:08:43.610Z,89045.97
2023-03-16T22:11:17.205Z,89041.75
2023-03-16T22:13:44.079Z,89046.00
2023-03-16T22:16:20.842Z,89063.94
2023-03-16T22:18:50.385Z,89074.91
2023-03-16T22:21:34.603Z,89062.09
2023-03-16T22:24:02.838Z,89065.94
2023-03-16T22:26:30.141Z,89064.75
2023-03-16T22:28:59.292Z,89069.19
2023-03-16T22:31:35.914Z,89063.31
2023-03-16T22:34:04.318Z,89057.88
2023-03-16T22:36:33.071Z,89065.19
2023-03-16T22:39:07.410Z,89055.44
2023-03-16T22:41:34.405Z,89046.75
2023-03-16T22:44:01.674Z,89043.78
2023-03-16T22:46:29.559Z,89039.88
2023-03-16T22:48:57.609Z,89038.06
2023-03-16T22:51:29.612Z,89030.41
2023-03-16T22:54:06.364Z,89027.38
2023-03-16T22:56:34.918Z,89025.00
2023-03-16T22:59:05.899Z,89029.91
2023-03-16T23:01:40.623Z,89019.09
2023-03-16T23:04:18.835Z,89027.38
2023-03-16T23:06:47.376Z,89027.16
2023-03-16T23:09:16.656Z,89025.47
2023-03-16T23:11:45.382Z,89026.34
2023-03-16T23:14:34.924Z,89021.31
2023-03-16T23:17:01.764Z,89022.06
2023-03-16T23:19:32.590Z,89031.38
2023-03-16T23:22:02.367Z,89044.25
2023-03-16T23:24:29.466Z,89045.66
2023-03-16T23:26:56.412Z,89035.72
2023-03-16T23:29:24.446Z,89031.31
2023-03-16T23:31:51.343Z,89033.78
2023-03-16T23:34:20.689Z,89033.03
2023-03-16T23:36:48.067Z,89020.09
2023-03-16T23:39:15.102Z,89006.50
2023-03-16T23:41:45.841Z,89015.56
2023-03-16T23:44:19.559Z,89011.75
2023-03-16T23:46:46.457Z,89018.03
2023-03-16T23:49:23.548Z,89019.47
2023-03-16T23:51:50.816Z,89013.56
2023-03-16T23:54:24.531Z,89014.16
2023-03-16T23:56:51.540Z,89018.00
2023-03-16T23:59:18.828Z,89009.28
